Time;durP1;ratioP1;P1;durP2;ratioP2;P2;SDS_P1;SDS_P2;PMS_P1;PMS_P2;Temp;Humidity;BMP_temperature;BMP_pressure;BME280_temperature;BME280_humidity;BME280_pressure;Samples;Min_cycle;Max_cycle;Signal;HPM_P1;HPM_P2
2021/07/30 00:01:03;;;;;;;12.53;7.55;;;;;;;16.16;70.31;96941.92;1832539;76;25631;-85
2021/07/30 00:03:30;;;;;;;14.07;7.83;;;;;;;16.15;70.33;96945.72;1825827;77;25640;-86
2021/07/30 00:05:56;;;;;;;11.22;7.85;;;;;;;16.13;70.34;96945.69;1815107;77;25649;-85
2021/07/30 00:08:23;;;;;;;13.45;8.53;;;;;;;16.11;70.39;96941.03;1820435;77;25718;-85
2021/07/30 00:10:55;;;;;;;13.60;8.18;;;;;;;16.09;70.39;96938.56;1827116;77;28186;-86
2021/07/30 00:13:22;;;;;;;10.70;7.83;;;;;;;16.07;70.41;96933.09;1822472;77;25700;-85
2021/07/30 00:15:49;;;;;;;13.08;7.45;;;;;;;16.04;70.53;96934.45;1823478;77;25736;-85
2021/07/30 00:18:15;;;;;;;11.68;8.55;;;;;;;16.01;70.48;96928.15;1837069;77;25259;-84
2021/07/30 00:20:42;;;;;;;9.05;7.50;;;;;;;15.93;70.59;96927.27;1825633;76;26206;-84
2021/07/30 00:23:08;;;;;;;15.83;8.90;;;;;;;15.93;70.75;96926.44;1831492;76;28190;-84
2021/07/30 00:25:35;;;;;;;13.22;8.78;;;;;;;15.87;70.84;96922.83;1831015;76;25834;-85
2021/07/30 00:28:02;;;;;;;12.35;8.53;;;;;;;15.80;70.77;96926.30;1824747;77;25802;-85
2021/07/30 00:30:29;;;;;;;16.37;8.68;;;;;;;15.78;71.00;96925.73;1811010;76;25733;-86
2021/07/30 00:32:55;;;;;;;11.43;8.15;;;;;;;15.80;71.04;96927.66;1829795;78;26456;-84
2021/07/30 00:35:22;;;;;;;9.80;6.92;;;;;;;15.79;70.96;96928.20;1829008;77;28196;-86
2021/07/30 00:37:48;;;;;;;9.00;7.00;;;;;;;15.79;70.99;96921.94;1828400;77;25814;-85
2021/07/30 00:40:15;;;;;;;12.35;7.35;;;;;;;15.80;70.99;96927.66;1826969;77;26114;-86
2021/07/30 00:42:52;;;;;;;10.05;6.40;;;;;;;15.78;70.97;96921.11;1828993;77;25699;-85
2021/07/30 00:45:20;;;;;;;11.33;7.58;;;;;;;15.76;70.94;96918.36;1824945;77;25707;-85
2021/07/30 00:47:49;;;;;;;9.55;7.35;;;;;;;15.77;70.98;96930.35;1814214;76;28415;-85
2021/07/30 00:50:17;;;;;;;8.55;6.75;;;;;;;15.74;70.95;96925.95;1828995;77;25712;-85
2021/07/30 00:52:44;;;;;;;11.25;6.90;;;;;;;15.71;71.04;96929.17;1828829;77;25850;-85
2021/07/30 00:55:11;;;;;;;9.03;6.97;;;;;;;15.67;71.07;96937.59;1828280;76;25687;-85
2021/07/30 00:57:40;;;;;;;9.23;7.55;;;;;;;15.65;71.11;96932.93;1827105;78;25707;-85
2021/07/30 01:00:08;;;;;;;11.48;6.92;;;;;;;15.62;71.16;96931.53;1818887;78;27440;-86
2021/07/30 01:02:35;;;;;;;12.37;7.03;;;;;;;15.59;71.25;96929.86;1834234;77;25825;-84
2021/07/30 01:05:03;;;;;;;10.35;7.40;;;;;;;15.58;71.23;96924.16;1816993;77;25687;-85
2021/07/30 01:07:30;;;;;;;9.00;6.72;;;;;;;15.55;71.30;96916.50;1828722;77;25969;-85
2021/07/30 01:09:57;;;;;;;11.63;7.30;;;;;;;15.50;71.37;96916.69;1825802;76;25303;-86
2021/07/30 01:12:23;;;;;;;8.63;6.75;;;;;;;15.48;71.43;96916.11;1824693;76;27423;-84
2021/07/30 01:14:50;;;;;;;10.38;6.87;;;;;;;15.48;71.54;96918.83;1821812;77;25764;-84
2021/07/30 01:17:17;;;;;;;9.70;7.05;;;;;;;15.47;71.58;96918.54;1834268;77;25770;-83
2021/07/30 01:19:43;;;;;;;14.18;7.58;;;;;;;15.47;71.67;96913.10;1831167;77;25753;-84
2021/07/30 01:22:30;;;;;;;9.78;6.72;;;;;;;15.47;71.75;96921.80;1808182;77;25732;-84
2021/07/30 01:24:57;;;;;;;11.22;6.70;;;;;;;15.38;71.61;96924.15;1835362;77;27374;-83
2021/07/30 01:27:23;;;;;;;11.48;7.37;;;;;;;15.33;71.92;96926.83;1830261;77;25786;-84
2021/07/30 01:29:51;;;;;;;13.43;8.23;;;;;;;15.34;72.00;96931.16;1818037;77;25728;-84
2021/07/30 01:32:19;;;;;;;13.18;7.70;;;;;;;15.34;72.09;96920.28;1833322;77;25822;-84
2021/07/30 01:34:47;;;;;;;10.70;6.78;;;;;;;15.35;72.12;96919.21;1816893;77;25762;-85
2021/07/30 01:37:14;;;;;;;10.25;7.20;;;;;;;15.36;72.22;96918.14;1825048;77;28167;-84
2021/07/30 01:39:40;;;;;;;10.78;7.15;;;;;;;15.38;72.24;96920.07;1834237;77;25741;-85
2021/07/30 01:42:07;;;;;;;13.98;7.78;;;;;;;15.41;72.36;96916.85;1808015;77;26289;-84
2021/07/30 01:44:34;;;;;;;8.33;6.85;;;;;;;15.43;72.31;96907.91;1833326;77;25695;-85
2021/07/30 01:47:00;;;;;;;10.53;7.33;;;;;;;15.45;72.36;96905.77;1819683;77;25734;-85
2021/07/30 01:49:27;;;;;;;12.93;7.65;;;;;;;15.46;72.33;96911.45;1841340;77;28165;-85
2021/07/30 01:51:53;;;;;;;12.15;7.80;;;;;;;15.46;72.33;96904.66;1830006;77;26322;-84
2021/07/30 01:54:20;;;;;;;9.90;7.42;;;;;;;15.44;72.36;96901.39;1840230;76;26381;-85
2021/07/30 01:56:46;;;;;;;10.25;7.22;;;;;;;15.43;72.37;96906.55;1835712;77;26025;-84
2021/07/30 01:59:14;;;;;;;10.75;7.62;;;;;;;15.43;72.36;96910.62;1840617;77;25672;-84
2021/07/30 02:01:41;;;;;;;9.53;6.92;;;;;;;15.41;72.41;96910.59;1827531;77;27421;-83
2021/07/30 02:04:07;;;;;;;11.55;7.33;;;;;;;15.40;72.49;96909.77;1832908;77;26174;-84
2021/07/30 02:06:34;;;;;;;12.33;8.05;;;;;;;15.42;72.48;96908.16;1828540;77;26334;-84
2021/07/30 02:09:01;;;;;;;13.80;6.60;;;;;;;15.39;72.56;96913.56;1839539;77;25734;-84
2021/07/30 02:11:27;;;;;;;10.20;7.20;;;;;;;15.39;72.54;96909.48;1838302;77;25924;-84
2021/07/30 02:16:40;;;;;;;11.90;7.28;;;;;;;15.35;72.48;96897.99;1841712;76;25706;-86
2021/07/30 02:19:07;;;;;;;12.03;7.15;;;;;;;15.31;72.57;96905.86;1831757;77;25766;-83
2021/07/30 02:21:33;;;;;;;10.75;8.05;;;;;;;15.31;72.68;96910.47;1833327;77;25662;-83
2021/07/30 02:24:00;;;;;;;7.87;7.00;;;;;;;15.30;72.74;96902.84;1822821;77;25655;-84
2021/07/30 02:26:27;;;;;;;12.13;8.23;;;;;;;15.31;72.80;96899.06;1837031;77;28223;-84
2021/07/30 02:28:57;;;;;;;12.00;7.75;;;;;;;15.28;72.77;96895.48;1830393;77;25794;-82
2021/07/30 02:31:24;;;;;;;9.68;7.67;;;;;;;15.29;72.78;96898.48;1837170;77;25711;-84
2021/07/30 02:33:51;;;;;;;12.73;7.50;;;;;;;15.29;72.83;96897.66;1837480;77;25641;-84
2021/07/30 02:36:18;;;;;;;13.03;7.78;;;;;;;15.26;72.86;96898.16;1839173;77;25947;-83
2021/07/30 02:38:46;;;;;;;10.72;7.35;;;;;;;15.17;72.84;96896.97;1826547;77;28009;-84
2021/07/30 02:41:12;;;;;;;12.68;7.25;;;;;;;15.13;72.91;96897.47;1732047;80;26066;-84
2021/07/30 02:43:40;;;;;;;10.10;6.97;;;;;;;15.11;73.04;96897.42;1779273;78;25715;-82
2021/07/30 02:46:06;;;;;;;9.25;7.10;;;;;;;15.09;73.07;96899.03;1765594;79;25805;-83
2021/07/30 02:48:33;;;;;;;8.83;6.65;;;;;;;15.10;73.12;96894.42;1783788;79;26423;-84
2021/07/30 02:50:59;;;;;;;11.35;6.67;;;;;;;15.05;73.16;96893.02;1791363;78;27354;-82
2021/07/30 02:53:26;;;;;;;12.30;7.90;;;;;;;14.91;73.13;96893.09;1777307;79;25739;-83
2021/07/30 02:55:53;;;;;;;12.43;7.75;;;;;;;14.84;73.35;96891.92;1779922;78;25935;-83
2021/07/30 02:58:19;;;;;;;15.40;7.83;;;;;;;14.88;73.56;96899.02;1777145;79;25708;-83
2021/07/30 03:00:46;;;;;;;12.15;7.85;;;;;;;14.90;73.61;96899.59;1776712;79;25891;-83
2021/07/30 03:03:12;;;;;;;10.80;7.87;;;;;;;14.93;73.64;96899.10;1787585;79;28101;-83
2021/07/30 03:05:39;;;;;;;13.03;7.72;;;;;;;14.95;73.72;96896.95;1784892;79;25645;-84
2021/07/30 03:08:06;;;;;;;12.00;7.95;;;;;;;14.98;73.77;96891.00;1783868;79;25851;-83
2021/07/30 03:10:33;;;;;;;14.45;7.78;;;;;;;15.00;73.76;96899.73;1759590;79;25677;-83
2021/07/30 03:13:00;;;;;;;8.85;6.53;;;;;;;14.99;73.80;96895.36;1810898;78;25758;-83
2021/07/30 03:15:26;;;;;;;14.25;7.20;;;;;;;15.00;73.79;96903.80;1808516;78;27989;-84
2021/07/30 03:17:53;;;;;;;12.40;7.75;;;;;;;15.01;73.79;96906.27;1812962;78;25692;-83
2021/07/30 03:20:19;;;;;;;10.10;7.55;;;;;;;15.00;73.84;96901.08;1812261;77;25722;-82
2021/07/30 03:22:46;;;;;;;14.45;7.30;;;;;;;15.04;73.85;96901.70;1824348;77;26188;-83
2021/07/30 03:25:13;;;;;;;9.43;7.12;;;;;;;15.05;73.83;96897.09;1838358;76;25725;-83
2021/07/30 03:27:42;;;;;;;8.75;7.47;;;;;;;15.07;73.94;96900.38;1819548;77;28193;-83
2021/07/30 03:30:10;;;;;;;10.13;7.53;;;;;;;15.08;73.98;96900.67;1829625;77;25931;-83
2021/07/30 03:32:37;;;;;;;13.05;7.67;;;;;;;15.04;74.09;96898.16;1789426;77;25818;-83
2021/07/30 03:35:04;;;;;;;12.35;7.80;;;;;;;15.05;74.34;96897.09;1802608;77;25708;-83
2021/07/30 03:37:31;;;;;;;11.18;7.35;;;;;;;15.09;74.39;96899.59;1826821;77;25773;-82
2021/07/30 03:39:57;;;;;;;15.40;7.40;;;;;;;15.13;74.45;96900.72;1833389;77;27235;-83
2021/07/30 03:42:24;;;;;;;9.90;7.45;;;;;;;15.18;74.47;96898.61;1829590;77;25815;-84
2021/07/30 03:44:51;;;;;;;11.45;7.87;;;;;;;15.20;74.50;96900.55;1824823;77;25696;-86
2021/07/30 03:47:17;;;;;;;8.35;7.05;;;;;;;15.15;74.47;96894.50;1830482;77;26057;-83
2021/07/30 03:49:44;;;;;;;9.28;7.47;;;;;;;15.14;74.55;96895.56;1831163;77;25683;-84
2021/07/30 03:52:10;;;;;;;17.07;7.45;;;;;;;15.17;74.61;96899.15;1763023;80;27356;-83
2021/07/30 03:54:37;;;;;;;9.78;7.58;;;;;;;15.21;74.61;96893.50;1812174;77;26484;-83
2021/07/30 03:57:05;;;;;;;11.93;7.87;;;;;;;15.25;74.66;96904.13;1830759;76;25194;-83
2021/07/30 03:59:32;;;;;;;8.83;7.28;;;;;;;15.24;74.66;96892.97;1827582;77;25657;-84
2021/07/30 04:01:58;;;;;;;8.15;6.55;;;;;;;15.24;74.69;96891.61;1826429;77;25208;-84
2021/07/30 04:04:25;;;;;;;8.43;7.33;;;;;;;15.26;74.70;96895.44;1827190;77;27497;-83
2021/07/30 04:06:51;;;;;;;10.60;7.85;;;;;;;15.28;74.77;96899.55;1828695;77;26234;-84
2021/07/30 04:09:18;;;;;;;9.43;7.35;;;;;;;15.28;74.86;96892.76;1811042;77;25706;-83
2021/07/30 04:11:45;;;;;;;9.90;7.17;;;;;;;15.29;74.95;96884.89;1825173;77;26021;-84
2021/07/30 04:14:11;;;;;;;10.20;7.22;;;;;;;15.27;74.93;96899.80;1829622;77;25687;-84
2021/07/30 04:16:38;;;;;;;10.98;7.20;;;;;;;15.30;75.04;96896.59;1846252;76;27335;-84
2021/07/30 04:19:09;;;;;;;11.93;7.55;;;;;;;15.34;75.06;96891.73;1805576;77;25850;-84
2021/07/30 04:21:38;;;;;;;13.32;6.87;;;;;;;15.39;75.12;96891.80;1823208;77;25683;-83
2021/07/30 04:24:05;;;;;;;14.25;7.55;;;;;;;15.40;75.20;96888.01;1823778;77;26212;-83
2021/07/30 04:26:32;;;;;;;10.95;8.35;;;;;;;15.44;75.17;96887.80;1826608;76;25675;-84
2021/07/30 04:28:59;;;;;;;13.62;7.33;;;;;;;15.49;75.18;96893.27;1819526;78;27381;-83
2021/07/30 04:31:25;;;;;;;8.63;7.17;;;;;;;15.53;75.21;96894.13;1805732;77;25786;-83
2021/07/30 04:33:52;;;;;;;9.85;7.45;;;;;;;15.56;75.30;96892.30;1801136;77;25767;-84
2021/07/30 04:36:18;;;;;;;9.88;7.42;;;;;;;15.58;75.25;96888.22;1829529;77;26027;-83
2021/07/30 04:38:46;;;;;;;11.33;7.75;;;;;;;15.63;75.31;96888.83;1782497;79;25713;-85
2021/07/30 04:41:13;;;;;;;11.33;7.87;;;;;;;15.70;75.45;96894.88;1757494;78;27409;-82
2021/07/30 04:43:39;;;;;;;11.75;8.48;;;;;;;15.74;75.46;96894.13;1826343;77;25738;-83
2021/07/30 04:46:15;;;;;;;10.55;8.95;;;;;;;15.80;75.54;96893.65;1820297;78;25686;-83
2021/07/30 04:48:42;;;;;;;11.20;8.10;;;;;;;15.87;75.64;96890.70;1806633;78;25728;-84
2021/07/30 04:51:11;;;;;;;10.53;7.85;;;;;;;15.94;75.74;96891.34;1784175;78;25721;-85
2021/07/30 04:53:38;;;;;;;11.53;9.13;;;;;;;16.01;75.79;96890.03;1810382;78;27287;-84
2021/07/30 04:56:05;;;;;;;10.72;8.33;;;;;;;16.09;75.82;96886.84;1805519;78;25810;-84
2021/07/30 04:58:31;;;;;;;11.60;7.75;;;;;;;16.16;75.87;96886.09;1786999;78;25692;-85
2021/07/30 05:01:03;;;;;;;11.00;7.95;;;;;;;16.24;76.03;96888.05;1814113;78;26326;-85
2021/07/30 05:03:30;;;;;;;14.23;8.83;;;;;;;16.31;76.10;96887.28;1817352;78;25626;-84
2021/07/30 05:05:56;;;;;;;16.42;10.13;;;;;;;16.38;76.22;96893.34;1816278;78;28232;-84
2021/07/30 05:08:23;;;;;;;16.40;10.30;;;;;;;16.45;76.22;96881.67;1817226;78;25795;-83
2021/07/30 05:10:50;;;;;;;11.03;7.72;;;;;;;16.53;76.26;96882.03;1802725;78;25732;-85
2021/07/30 05:13:17;;;;;;;14.78;9.53;;;;;;;16.63;76.24;96881.84;1799037;78;25718;-84
2021/07/30 05:15:43;;;;;;;15.05;8.45;;;;;;;16.71;76.24;96878.08;1810052;78;25885;-86
2021/07/30 05:18:10;;;;;;;12.55;8.10;;;;;;;16.79;76.30;96877.58;1813728;78;27352;-85
2021/07/30 05:20:41;;;;;;;9.45;7.83;;;;;;;16.87;76.26;96883.09;1815303;77;25767;-85
2021/07/30 05:23:07;;;;;;;10.48;7.75;;;;;;;16.94;76.19;96875.48;1814031;77;25687;-83
2021/07/30 05:25:34;;;;;;;8.78;7.20;;;;;;;17.04;76.12;96876.07;1800106;78;26143;-84
2021/07/30 05:28:00;;;;;;;13.22;7.25;;;;;;;17.10;76.11;96871.76;1806166;77;26471;-83
2021/07/30 05:30:27;;;;;;;9.90;6.97;;;;;;;17.17;76.00;96871.50;1795963;77;27346;-84
2021/07/30 05:32:54;;;;;;;11.22;7.92;;;;;;;17.26;75.89;96874.02;1795229;78;25784;-83
2021/07/30 05:35:20;;;;;;;11.03;9.05;;;;;;;17.32;75.87;96866.12;1797530;77;25910;-82
2021/07/30 05:37:47;;;;;;;10.68;8.13;;;;;;;17.41;75.83;96871.33;1807244;78;26074;-83
2021/07/30 05:40:14;;;;;;;9.65;7.95;;;;;;;17.49;75.80;96874.10;1794178;77;25757;-83
2021/07/30 05:42:40;;;;;;;12.58;9.65;;;;;;;17.57;75.93;96866.20;1793662;78;28244;-84
2021/07/30 05:45:09;;;;;;;13.45;9.65;;;;;;;17.65;75.97;96866.24;1794425;78;25753;-84
2021/07/30 05:47:35;;;;;;;9.48;7.95;;;;;;;17.75;76.22;96869.56;1785932;78;25807;-85
2021/07/30 05:50:02;;;;;;;10.65;8.30;;;;;;;17.87;76.05;96871.50;1798006;78;26009;-84
2021/07/30 05:52:30;;;;;;;10.72;7.85;;;;;;;17.97;75.92;96860.59;1796998;78;25695;-83
2021/07/30 05:54:57;;;;;;;10.53;7.55;;;;;;;18.11;75.76;96863.61;1805713;78;27322;-83
2021/07/30 05:57:23;;;;;;;13.40;7.67;;;;;;;18.23;75.43;96862.22;1818211;78;25691;-84
2021/07/30 05:59:50;;;;;;;10.05;7.17;;;;;;;18.33;75.33;96862.24;1810282;77;26279;-85
2021/07/30 06:02:17;;;;;;;8.78;7.20;;;;;;;18.46;75.08;96869.61;1810057;78;26186;-84
2021/07/30 06:04:43;;;;;;;9.80;7.30;;;;;;;18.61;75.01;96861.41;1800430;77;25673;-84
2021/07/30 06:07:10;;;;;;;10.05;7.30;;;;;;;18.75;74.70;96866.58;1797113;77;27573;-83
2021/07/30 06:09:37;;;;;;;14.83;6.92;;;;;;;18.92;74.18;96872.57;1802040;77;26140;-84
2021/07/30 06:12:04;;;;;;;10.10;7.45;;;;;;;19.08;73.79;96867.31;1800412;78;25751;-86
2021/07/30 06:14:30;;;;;;;12.43;7.35;;;;;;;19.27;73.49;96869.45;1808249;77;25834;-87
2021/07/30 06:16:57;;;;;;;7.37;6.33;;;;;;;19.43;73.18;96869.66;1804810;78;25767;-87
2021/07/30 06:19:24;;;;;;;9.88;7.25;;;;;;;19.61;72.70;96868.23;1816412;77;27382;-85
2021/07/30 06:21:50;;;;;;;8.40;7.40;;;;;;;19.78;72.40;96864.03;1813022;77;25892;-84
2021/07/30 06:24:17;;;;;;;10.08;7.45;;;;;;;19.93;72.04;96866.38;1817789;77;25741;-84
2021/07/30 06:26:44;;;;;;;10.60;6.90;;;;;;;20.04;71.48;96863.88;1811522;77;25686;-81
2021/07/30 06:29:10;;;;;;;10.72;6.15;;;;;;;20.15;71.17;96868.17;1831310;77;26371;-84
2021/07/30 06:31:37;;;;;;;10.23;6.92;;;;;;;20.26;70.79;96866.98;1815190;77;27419;-84
2021/07/30 06:34:03;;;;;;;9.15;6.58;;;;;;;20.32;70.70;96865.01;1819095;77;25799;-83
2021/07/30 06:36:30;;;;;;;8.68;7.28;;;;;;;20.37;70.09;96863.09;1805262;77;25212;-85
2021/07/30 06:38:57;;;;;;;9.25;6.78;;;;;;;20.42;69.90;96865.77;1816936;76;25737;-82
2021/07/30 06:41:23;;;;;;;9.18;6.53;;;;;;;20.49;69.60;96866.27;1821215;76;25504;-83
2021/07/30 06:43:50;;;;;;;9.18;6.67;;;;;;;20.56;69.47;96863.73;1814096;77;27324;-83
2021/07/30 06:46:17;;;;;;;8.53;7.03;;;;;;;20.60;69.32;96857.40;1819219;77;25739;-84
2021/07/30 06:48:43;;;;;;;8.05;6.92;;;;;;;20.65;69.31;96857.92;1824387;76;25893;-85
2021/07/30 06:51:12;;;;;;;8.50;6.50;;;;;;;20.71;69.35;96852.08;1825571;77;26757;-84
2021/07/30 06:53:40;;;;;;;9.48;6.92;;;;;;;20.80;69.30;96853.63;1826671;76;25874;-84
2021/07/30 06:56:14;;;;;;;9.85;6.65;;;;;;;20.90;69.34;96854.89;1823439;77;27398;-85
2021/07/30 06:58:41;;;;;;;8.83;6.65;;;;;;;20.97;68.85;96854.01;1826174;77;25730;-84
2021/07/30 07:01:08;;;;;;;10.03;6.25;;;;;;;21.07;68.67;96848.41;1820047;77;26326;-83
2021/07/30 07:03:34;;;;;;;8.50;6.90;;;;;;;21.20;68.33;96847.73;1823263;77;25709;-84
2021/07/30 07:06:01;;;;;;;9.30;6.50;;;;;;;21.31;68.17;96844.86;1825996;77;25661;-86
2021/07/30 07:08:27;;;;;;;10.13;6.97;;;;;;;21.42;68.26;96845.81;1783483;78;28181;-84
2021/07/30 07:10:54;;;;;;;13.15;7.28;;;;;;;21.55;67.91;96841.53;1814725;78;25244;-84
2021/07/30 07:13:20;;;;;;;9.43;6.30;;;;;;;21.63;67.33;96844.98;1819975;77;25280;-88
2021/07/30 07:15:48;;;;;;;11.65;6.60;;;;;;;21.76;67.19;96836.00;1815598;77;25732;-83
2021/07/30 07:18:15;;;;;;;9.10;6.58;;;;;;;21.87;66.56;96839.42;1829834;77;25719;-83
2021/07/30 07:20:41;;;;;;;11.38;6.50;;;;;;;21.98;66.35;96834.62;1828232;77;27383;-82
2021/07/30 07:23:08;;;;;;;11.68;7.03;;;;;;;22.08;66.05;96832.56;1806713;77;25683;-88
2021/07/30 07:25:34;;;;;;;11.12;6.60;;;;;;;22.19;65.79;96833.20;1810792;78;26240;-82
2021/07/30 07:28:01;;;;;;;7.08;5.92;;;;;;;22.32;65.55;96835.20;1816307;78;25727;-82
2021/07/30 07:30:28;;;;;;;9.30;6.20;;;;;;;22.47;64.99;96825.84;1807784;77;25738;-83
2021/07/30 07:32:54;;;;;;;7.75;6.15;;;;;;;22.58;65.09;96823.20;1829084;77;26834;-86
2021/07/30 07:35:21;;;;;;;8.43;6.37;;;;;;;22.76;64.46;96822.90;1826219;77;26350;-85
2021/07/30 07:37:48;;;;;;;8.75;6.60;;;;;;;22.84;64.28;96821.63;1821140;76;25431;-91
2021/07/30 07:40:14;;;;;;;7.97;6.47;;;;;;;22.94;64.07;96821.42;1817471;77;25814;-85
2021/07/30 07:42:41;;;;;;;8.70;6.03;;;;;;;23.21;63.28;96826.13;1818740;77;25745;-85
2021/07/30 07:45:09;;;;;;;8.45;5.67;;;;;;;23.21;63.28;96826.13;1814458;77;27564;-86
2021/07/30 07:47:36;;;;;;;8.75;5.62;;;;;;;23.51;63.13;96820.59;1827514;77;25279;-90
2021/07/30 07:50:03;;;;;;;9.35;6.47;;;;;;;23.87;62.90;96815.11;1826026;76;25702;-85
2021/07/30 07:52:33;;;;;;;9.85;5.58;;;;;;;24.25;62.24;96827.20;1820000;77;25742;-87
2021/07/30 07:55:00;;;;;;;5.40;4.92;;;;;;;24.61;61.32;96823.80;1817451;76;25746;-84
2021/07/30 07:57:26;;;;;;;8.15;5.17;;;;;;;24.95;60.52;96815.48;1779407;78;27417;-84
2021/07/30 07:59:53;;;;;;;6.42;5.67;;;;;;;25.08;59.65;96815.38;1809676;77;25697;-88
2021/07/30 08:02:19;;;;;;;8.10;5.12;;;;;;;25.11;59.25;96810.61;1826517;77;25784;-90
2021/07/30 08:04:46;;;;;;;9.58;5.00;;;;;;;25.45;59.07;96809.90;1838962;76;26165;-90
2021/07/30 08:07:17;;;;;;;8.30;5.00;;;;;;;25.78;58.19;96808.11;1826070;77;25746;-92
2021/07/30 08:09:41;;;;;;;6.67;5.62;;;;;;;26.14;57.84;96800.31;1807330;77;27547;-89
2021/07/30 08:12:08;;;;;;;6.30;5.08;;;;;;;26.51;57.28;96800.22;1794051;78;26056;-89
2021/07/30 08:14:34;;;;;;;6.53;5.05;;;;;;;26.83;56.42;96802.98;1798731;78;25715;-90
2021/07/30 08:17:01;;;;;;;11.25;4.90;;;;;;;27.13;55.96;96802.51;1835566;76;25659;-90
2021/07/30 08:19:27;;;;;;;5.30;4.80;;;;;;;27.39;55.09;96792.69;1819201;77;25670;-89
2021/07/30 08:21:54;;;;;;;6.55;5.05;;;;;;;27.59;54.19;96791.13;1812715;76;28218;-88
2021/07/30 08:24:21;;;;;;;7.05;4.97;;;;;;;27.82;53.86;96788.84;1802949;77;25743;-87
2021/07/30 08:26:47;;;;;;;7.15;5.12;;;;;;;28.12;53.86;96790.41;1792976;78;25689;-87
2021/07/30 08:29:16;;;;;;;5.42;4.90;;;;;;;28.46;53.00;96778.78;1821588;76;26179;-90
2021/07/30 08:31:43;;;;;;;7.65;5.20;;;;;;;28.73;52.53;96787.08;1822076;77;25756;-86
2021/07/30 08:34:12;;;;;;;5.45;4.95;;;;;;;28.92;51.73;96782.63;1826059;78;27346;-86
2021/07/30 08:36:39;;;;;;;7.40;5.17;;;;;;;29.06;51.08;96784.27;1825278;77;25754;-81
2021/07/30 08:39:05;;;;;;;5.20;4.70;;;;;;;29.24;50.69;96774.54;1796905;76;25739;-82
2021/07/30 08:41:34;;;;;;;5.70;4.53;;;;;;;29.40;49.80;96783.84;1822035;78;25655;-82
2021/07/30 08:44:00;;;;;;;9.88;5.35;;;;;;;29.72;49.56;96774.53;1827379;77;25748;-82
2021/07/30 08:46:30;;;;;;;4.92;4.42;;;;;;;29.89;48.37;96785.17;1808512;77;27346;-84
2021/07/30 08:48:56;;;;;;;6.40;5.28;;;;;;;30.03;48.03;96781.46;1821439;76;25716;-86
2021/07/30 08:51:27;;;;;;;5.30;4.80;;;;;;;30.21;47.43;96774.43;1830369;77;25826;-86
2021/07/30 08:53:54;;;;;;;7.15;4.75;;;;;;;30.43;47.02;96770.30;1831183;77;26171;-83
2021/07/30 08:56:21;;;;;;;5.37;4.45;;;;;;;30.65;46.58;96766.16;1811841;77;25684;-88
2021/07/30 08:58:48;;;;;;;4.75;4.35;;;;;;;30.96;46.63;96763.97;1812797;78;27329;-89
2021/07/30 09:01:15;;;;;;;4.75;4.10;;;;;;;31.02;45.45;96761.97;1799359;78;26436;-83
2021/07/30 09:03:45;;;;;;;4.90;4.50;;;;;;;31.07;45.31;96760.88;1814160;78;25803;-83
2021/07/30 09:06:20;;;;;;;7.12;4.92;;;;;;;31.34;45.19;96765.57;1809401;78;26265;-83
2021/07/30 09:09:07;;;;;;;5.15;4.40;;;;;;;31.63;44.83;96758.70;1798891;78;25912;-86
2021/07/30 09:11:40;;;;;;;5.83;4.47;;;;;;;31.89;44.20;96758.09;1784601;77;27446;-87
2021/07/30 09:14:10;;;;;;;5.15;4.40;;;;;;;32.14;43.98;96758.62;1800784;78;26538;-91
2021/07/30 09:16:54;;;;;;;4.50;4.10;;;;;;;32.22;43.22;96760.45;1810044;77;25664;-83
2021/07/30 09:19:23;;;;;;;4.67;4.28;;;;;;;32.39;42.79;96754.39;1816800;77;25653;-85
2021/07/30 09:22:07;;;;;;;7.65;4.80;;;;;;;32.27;41.91;96748.96;1792395;77;26377;-84
2021/07/30 09:24:40;;;;;;;6.95;4.50;;;;;;;32.08;41.90;96748.94;1812088;77;27390;-85
2021/07/30 09:27:12;;;;;;;6.90;4.78;;;;;;;32.08;41.63;96737.78;1796317;77;25744;-83
2021/07/30 09:29:40;;;;;;;4.78;4.22;;;;;;;32.15;41.17;96737.91;1804817;77;26513;-84
2021/07/30 09:32:17;;;;;;;6.60;4.28;;;;;;;31.84;40.83;96744.44;1816932;78;26184;-83
2021/07/30 09:34:50;;;;;;;5.12;4.62;;;;;;;31.81;41.18;96729.82;1814398;78;25731;-85
2021/07/30 09:37:26;;;;;;;4.87;4.25;;;;;;;31.97;40.68;96735.35;1802318;78;27015;-84
2021/07/30 09:39:53;;;;;;;5.65;4.83;;;;;;;31.89;40.66;96723.80;1803232;78;26718;-87
2021/07/30 09:42:33;;;;;;;5.58;4.58;;;;;;;31.85;40.43;96726.53;1782945;77;25782;-85
2021/07/30 09:45:09;;;;;;;4.80;4.05;;;;;;;31.77;39.64;96720.55;1814968;78;25725;-83
2021/07/30 09:47:40;;;;;;;4.62;4.22;;;;;;;31.54;39.95;96720.41;1817485;78;25691;-86
2021/07/30 09:50:09;;;;;;;5.67;4.67;;;;;;;31.40;40.23;96716.70;1779311;78;27432;-83
2021/07/30 09:52:39;;;;;;;5.83;4.62;;;;;;;31.39;40.22;96712.91;1790206;78;25756;-85
2021/07/30 09:55:13;;;;;;;5.15;4.65;;;;;;;31.35;40.36;96714.80;1788625;78;25756;-83
2021/07/30 09:57:45;;;;;;;7.53;5.22;;;;;;;31.23;40.12;96712.12;1815511;77;25743;-88
2021/07/30 10:00:16;;;;;;;5.10;4.47;;;;;;;31.09;40.29;96712.58;1804920;78;25642;-83
2021/07/30 10:02:47;;;;;;;5.25;4.75;;;;;;;30.75;40.55;96707.94;1823273;77;31304;-85
2021/07/30 10:05:20;;;;;;;5.40;4.90;;;;;;;30.40;41.01;96708.36;1819617;77;26019;-83
2021/07/30 10:07:46;;;;;;;5.28;4.78;;;;;;;29.85;42.01;96693.83;1819624;78;25720;-87
2021/07/30 10:10:26;;;;;;;4.90;4.47;;;;;;;29.54;42.78;96705.05;1801653;78;25760;-85
2021/07/30 10:12:57;;;;;;;7.92;5.47;;;;;;;29.36;42.84;96706.43;1806155;77;26435;-84
2021/07/30 10:15:22;;;;;;;7.45;5.60;;;;;;;29.09;43.85;96698.84;1811096;77;28152;-83
2021/07/30 10:17:52;;;;;;;8.48;5.62;;;;;;;29.07;44.88;96691.42;1818924;77;25711;-85
2021/07/30 10:20:20;;;;;;;6.87;4.40;;;;;;;29.12;45.20;96688.39;1792124;77;25692;-84
2021/07/30 10:23:09;;;;;;;4.97;4.35;;;;;;;28.94;44.54;96692.00;1811551;77;25647;-84
2021/07/30 10:25:49;;;;;;;5.78;5.15;;;;;;;28.72;45.12;96686.30;1832070;77;25615;-83
2021/07/30 10:28:22;;;;;;;5.75;5.25;;;;;;;28.90;45.66;96686.90;1829497;77;27491;-84
2021/07/30 10:31:05;;;;;;;6.75;4.90;;;;;;;28.92;45.56;96681.81;1829678;77;25747;-84
2021/07/30 10:33:37;;;;;;;6.45;4.97;;;;;;;29.03;45.27;96678.22;1828718;77;25648;-85
2021/07/30 10:36:12;;;;;;;5.58;4.97;;;;;;;28.87;45.29;96673.70;1830894;77;25819;-84
2021/07/30 10:38:40;;;;;;;5.50;5.00;;;;;;;28.79;45.52;96664.33;1829326;77;25751;-84
2021/07/30 10:41:12;;;;;;;5.55;5.05;;;;;;;28.93;45.81;96664.80;1829775;77;27420;-86
2021/07/30 10:44:04;;;;;;;5.15;4.62;;;;;;;29.08;46.16;96661.09;1829377;78;25755;-85
2021/07/30 10:46:31;;;;;;;7.33;4.47;;;;;;;28.95;45.48;96656.13;1830106;77;25767;-84
2021/07/30 10:48:58;;;;;;;6.03;4.70;;;;;;;28.98;44.60;96661.77;1832480;77;25857;-87
2021/07/30 10:51:32;;;;;;;7.05;4.37;;;;;;;29.11;43.55;96661.77;1816889;77;25853;-81
2021/07/30 10:54:02;;;;;;;5.53;5.03;;;;;;;29.26;43.73;96654.11;1823609;77;27367;-83
2021/07/30 10:56:34;;;;;;;4.97;4.50;;;;;;;29.37;44.14;96652.46;1817337;77;25828;-85
2021/07/30 10:59:06;;;;;;;7.17;4.55;;;;;;;29.47;43.80;96645.05;1822375;77;25628;-86
2021/07/30 11:01:39;;;;;;;;;;;;;;;29.69;43.73;96643.73;1818524;77;25788;-84
2021/07/30 11:04:06;;;;;;;5.35;4.33;;;;;;;29.93;43.12;96644.20;1830968;77;25821;-84
2021/07/30 11:06:41;;;;;;;5.67;4.72;;;;;;;30.21;43.83;96648.36;1806777;77;27572;-84
2021/07/30 11:09:18;;;;;;;6.30;4.72;;;;;;;30.16;43.56;96634.72;1827996;77;25656;-86
2021/07/30 11:11:52;;;;;;;4.83;4.37;;;;;;;30.19;43.24;96634.02;1800138;76;25770;-89
2021/07/30 11:14:33;;;;;;;6.92;4.20;;;;;;;30.27;43.18;96635.81;1834122;77;25755;-85
2021/07/30 11:17:02;;;;;;;5.03;4.37;;;;;;;30.24;42.54;96642.91;1797538;77;25835;-89
2021/07/30 11:19:33;;;;;;;8.35;4.50;;;;;;;30.08;42.05;96646.23;1819934;78;27411;-84
2021/07/30 11:22:05;;;;;;;7.77;4.60;;;;;;;30.08;41.84;96642.05;1832064;77;25804;-85
2021/07/30 11:24:42;;;;;;;4.67;4.15;;;;;;;30.19;41.74;96636.80;1843026;77;25781;-86
2021/07/30 11:27:11;;;;;;;5.53;4.40;;;;;;;30.37;41.39;96622.75;1826783;77;25676;-86
2021/07/30 11:29:46;;;;;;;4.35;3.95;;;;;;;30.58;41.63;96630.28;1823380;77;25687;-88
2021/07/30 11:32:15;;;;;;;4.92;3.75;;;;;;;30.78;40.94;96629.22;1805069;77;27579;-85
2021/07/30 11:34:46;;;;;;;8.08;4.25;;;;;;;30.96;40.35;96626.84;1829738;77;25701;-86
2021/07/30 11:37:17;;;;;;;4.90;4.33;;;;;;;30.90;40.61;96627.50;1812377;77;25237;-87